sensor_id;sensor_type;location;lat;lon;timestamp;P1;durP1;ratioP1;P2;durP2;ratioP2
52742;SDS011;55583;53.012;6.556;2023-07-09T00:00:45;15.63;;;7.65;;
52742;SDS011;55583;53.012;6.556;2023-07-09T00:03:12;12.45;;;7.63;;
52742;SDS011;55583;53.012;6.556;2023-07-09T00:05:38;11.68;;;8.13;;
52742;SDS011;55583;53.012;6.556;2023-07-09T00:08:03;11.30;;;8.18;;
52742;SDS011;55583;53.012;6.556;2023-07-09T00:10:29;13.02;;;8.00;;
52742;SDS011;55583;53.012;6.556;2023-07-09T00:12:55;11.38;;;8.00;;
52742;SDS011;55583;53.012;6.556;2023-07-09T00:15:21;10.63;;;7.53;;
52742;SDS011;55583;53.012;6.556;2023-07-09T00:17:47;15.02;;;7.40;;
52742;SDS011;55583;53.012;6.556;2023-07-09T00:20:14;11.52;;;8.23;;
52742;SDS011;55583;53.012;6.556;2023-07-09T00:22:41;11.85;;;7.38;;
52742;SDS011;55583;53.012;6.556;2023-07-09T00:25:13;12.52;;;8.40;;
52742;SDS011;55583;53.012;6.556;2023-07-09T00:27:41;11.35;;;8.48;;
52742;SDS011;55583;53.012;6.556;2023-07-09T00:30:16;11.95;;;8.80;;
52742;SDS011;55583;53.012;6.556;2023-07-09T00:32:43;11.60;;;8.25;;
52742;SDS011;55583;53.012;6.556;2023-07-09T00:35:10;10.52;;;7.43;;
52742;SDS011;55583;53.012;6.556;2023-07-09T00:37:44;14.13;;;8.32;;
52742;SDS011;55583;53.012;6.556;2023-07-09T00:40:13;9.55;;;7.32;;
52742;SDS011;55583;53.012;6.556;2023-07-09T00:42:42;10.40;;;8.10;;
52742;SDS011;55583;53.012;6.556;2023-07-09T00:45:16;11.82;;;8.48;;
52742;SDS011;55583;53.012;6.556;2023-07-09T00:47:47;12.38;;;8.07;;
52742;SDS011;55583;53.012;6.556;2023-07-09T00:50:40;13.35;;;8.60;;
52742;SDS011;55583;53.012;6.556;2023-07-09T00:53:17;13.60;;;7.70;;
52742;SDS011;55583;53.012;6.556;2023-07-09T00:55:52;11.00;;;8.07;;
52742;SDS011;55583;53.012;6.556;2023-07-09T01:01:00;12.85;;;7.80;;
52742;SDS011;55583;53.012;6.556;2023-07-09T01:03:38;12.90;;;8.52;;
52742;SDS011;55583;53.012;6.556;2023-07-09T01:06:07;15.77;;;9.30;;
52742;SDS011;55583;53.012;6.556;2023-07-09T01:08:34;13.30;;;8.43;;
52742;SDS011;55583;53.012;6.556;2023-07-09T01:11:03;12.27;;;8.50;;
52742;SDS011;55583;53.012;6.556;2023-07-09T01:13:30;11.60;;;8.60;;
52742;SDS011;55583;53.012;6.556;2023-07-09T01:16:00;13.55;;;8.77;;
52742;SDS011;55583;53.012;6.556;2023-07-09T01:18:26;16.20;;;8.75;;
52742;SDS011;55583;53.012;6.556;2023-07-09T01:20:57;10.48;;;7.65;;
52742;SDS011;55583;53.012;6.556;2023-07-09T01:23:32;16.60;;;8.93;;
52742;SDS011;55583;53.012;6.556;2023-07-09T01:25:57;21.52;;;7.75;;
52742;SDS011;55583;53.012;6.556;2023-07-09T01:28:23;12.25;;;8.32;;
52742;SDS011;55583;53.012;6.556;2023-07-09T01:30:49;11.48;;;8.35;;
52742;SDS011;55583;53.012;6.556;2023-07-09T01:33:19;11.68;;;8.10;;
52742;SDS011;55583;53.012;6.556;2023-07-09T01:35:46;12.13;;;8.88;;
52742;SDS011;55583;53.012;6.556;2023-07-09T01:38:12;10.88;;;8.57;;
52742;SDS011;55583;53.012;6.556;2023-07-09T01:40:38;10.02;;;8.10;;
52742;SDS011;55583;53.012;6.556;2023-07-09T01:43:04;12.30;;;8.57;;
52742;SDS011;55583;53.012;6.556;2023-07-09T01:45:32;11.73;;;8.57;;
52742;SDS011;55583;53.012;6.556;2023-07-09T01:47:59;16.20;;;8.45;;
52742;SDS011;55583;53.012;6.556;2023-07-09T01:50:25;8.98;;;7.90;;
52742;SDS011;55583;53.012;6.556;2023-07-09T01:52:52;13.18;;;8.63;;
52742;SDS011;55583;53.012;6.556;2023-07-09T01:55:18;12.02;;;7.88;;
52742;SDS011;55583;53.012;6.556;2023-07-09T01:57:44;13.07;;;8.75;;
52742;SDS011;55583;53.012;6.556;2023-07-09T02:00:12;10.63;;;8.48;;
52742;SDS011;55583;53.012;6.556;2023-07-09T02:02:40;11.60;;;8.20;;
52742;SDS011;55583;53.012;6.556;2023-07-09T02:05:11;14.57;;;8.30;;
52742;SDS011;55583;53.012;6.556;2023-07-09T02:07:38;11.02;;;8.57;;
52742;SDS011;55583;53.012;6.556;2023-07-09T02:10:04;12.30;;;7.95;;
52742;SDS011;55583;53.012;6.556;2023-07-09T02:12:30;17.60;;;8.95;;
52742;SDS011;55583;53.012;6.556;2023-07-09T02:14:56;11.52;;;8.30;;
52742;SDS011;55583;53.012;6.556;2023-07-09T02:17:21;15.40;;;8.23;;
52742;SDS011;55583;53.012;6.556;2023-07-09T02:19:47;10.73;;;8.30;;
52742;SDS011;55583;53.012;6.556;2023-07-09T02:22:13;12.27;;;8.80;;
52742;SDS011;55583;53.012;6.556;2023-07-09T02:24:38;11.90;;;8.02;;
52742;SDS011;55583;53.012;6.556;2023-07-09T02:27:06;11.80;;;8.48;;
52742;SDS011;55583;53.012;6.556;2023-07-09T02:29:35;12.40;;;7.97;;
52742;SDS011;55583;53.012;6.556;2023-07-09T02:32:01;14.55;;;8.40;;
52742;SDS011;55583;53.012;6.556;2023-07-09T02:34:27;14.15;;;8.73;;
52742;SDS011;55583;53.012;6.556;2023-07-09T02:36:55;11.73;;;7.82;;
52742;SDS011;55583;53.012;6.556;2023-07-09T02:39:22;10.15;;;8.05;;
52742;SDS011;55583;53.012;6.556;2023-07-09T02:41:49;10.18;;;8.20;;
52742;SDS011;55583;53.012;6.556;2023-07-09T02:44:15;9.65;;;7.85;;
52742;SDS011;55583;53.012;6.556;2023-07-09T02:46:41;17.02;;;9.70;;
52742;SDS011;55583;53.012;6.556;2023-07-09T02:49:09;15.40;;;9.40;;
52742;SDS011;55583;53.012;6.556;2023-07-09T02:51:36;19.73;;;10.00;;
52742;SDS011;55583;53.012;6.556;2023-07-09T02:54:02;15.23;;;9.02;;
52742;SDS011;55583;53.012;6.556;2023-07-09T02:56:28;12.15;;;9.43;;
52742;SDS011;55583;53.012;6.556;2023-07-09T02:58:55;11.63;;;8.73;;
52742;SDS011;55583;53.012;6.556;2023-07-09T03:01:20;10.75;;;8.05;;
52742;SDS011;55583;53.012;6.556;2023-07-09T03:03:50;13.00;;;9.52;;
52742;SDS011;55583;53.012;6.556;2023-07-09T03:06:19;11.27;;;7.97;;
52742;SDS011;55583;53.012;6.556;2023-07-09T03:08:48;9.75;;;7.78;;
52742;SDS011;55583;53.012;6.556;2023-07-09T03:11:14;12.10;;;8.60;;
52742;SDS011;55583;53.012;6.556;2023-07-09T03:13:41;12.10;;;8.45;;
52742;SDS011;55583;53.012;6.556;2023-07-09T03:16:07;13.43;;;8.45;;
52742;SDS011;55583;53.012;6.556;2023-07-09T03:18:33;11.68;;;8.20;;
52742;SDS011;55583;53.012;6.556;2023-07-09T03:20:59;12.02;;;8.05;;
52742;SDS011;55583;53.012;6.556;2023-07-09T03:23:25;15.45;;;8.80;;
52742;SDS011;55583;53.012;6.556;2023-07-09T03:25:51;12.07;;;8.55;;
52742;SDS011;55583;53.012;6.556;2023-07-09T03:28:16;11.77;;;7.97;;
52742;SDS011;55583;53.012;6.556;2023-07-09T03:30:43;10.27;;;7.68;;
52742;SDS011;55583;53.012;6.556;2023-07-09T03:33:10;13.27;;;8.20;;
52742;SDS011;55583;53.012;6.556;2023-07-09T03:35:37;10.93;;;8.18;;
52742;SDS011;55583;53.012;6.556;2023-07-09T03:38:04;12.45;;;8.15;;
52742;SDS011;55583;53.012;6.556;2023-07-09T03:40:30;20.58;;;9.05;;
52742;SDS011;55583;53.012;6.556;2023-07-09T03:42:56;14.32;;;8.30;;
52742;SDS011;55583;53.012;6.556;2023-07-09T03:45:22;13.27;;;8.27;;
52742;SDS011;55583;53.012;6.556;2023-07-09T03:47:48;11.15;;;7.82;;
52742;SDS011;55583;53.012;6.556;2023-07-09T03:50:13;9.80;;;7.63;;
52742;SDS011;55583;53.012;6.556;2023-07-09T03:52:39;12.38;;;9.13;;
52742;SDS011;55583;53.012;6.556;2023-07-09T03:55:05;11.82;;;8.85;;
52742;SDS011;55583;53.012;6.556;2023-07-09T03:57:31;11.77;;;8.10;;
52742;SDS011;55583;53.012;6.556;2023-07-09T03:59:57;11.38;;;8.05;;
52742;SDS011;55583;53.012;6.556;2023-07-09T04:02:22;10.18;;;7.22;;
52742;SDS011;55583;53.012;6.556;2023-07-09T04:04:48;14.25;;;8.25;;
52742;SDS011;55583;53.012;6.556;2023-07-09T04:07:14;11.00;;;7.47;;
52742;SDS011;55583;53.012;6.556;2023-07-09T04:09:40;12.93;;;8.68;;
52742;SDS011;55583;53.012;6.556;2023-07-09T04:12:06;12.23;;;8.48;;
52742;SDS011;55583;53.012;6.556;2023-07-09T04:14:32;13.55;;;8.27;;
52742;SDS011;55583;53.012;6.556;2023-07-09T04:16:57;12.60;;;8.00;;
52742;SDS011;55583;53.012;6.556;2023-07-09T04:19:23;11.45;;;8.52;;
52742;SDS011;55583;53.012;6.556;2023-07-09T04:21:49;12.52;;;8.23;;
52742;SDS011;55583;53.012;6.556;2023-07-09T04:24:16;10.23;;;7.47;;
52742;SDS011;55583;53.012;6.556;2023-07-09T04:26:42;13.93;;;7.32;;
52742;SDS011;55583;53.012;6.556;2023-07-09T04:29:09;11.65;;;7.78;;
52742;SDS011;55583;53.012;6.556;2023-07-09T04:31:35;11.50;;;8.10;;
52742;SDS011;55583;53.012;6.556;2023-07-09T04:34:02;9.50;;;7.22;;
52742;SDS011;55583;53.012;6.556;2023-07-09T04:36:28;9.95;;;8.20;;
52742;SDS011;55583;53.012;6.556;2023-07-09T04:38:54;15.52;;;8.52;;
52742;SDS011;55583;53.012;6.556;2023-07-09T04:41:20;9.25;;;7.25;;
52742;SDS011;55583;53.012;6.556;2023-07-09T04:43:46;9.25;;;7.15;;
52742;SDS011;55583;53.012;6.556;2023-07-09T04:46:11;8.90;;;7.47;;
52742;SDS011;55583;53.012;6.556;2023-07-09T04:48:37;10.45;;;7.80;;
52742;SDS011;55583;53.012;6.556;2023-07-09T04:51:03;9.27;;;7.53;;
52742;SDS011;55583;53.012;6.556;2023-07-09T04:53:29;12.95;;;7.80;;
52742;SDS011;55583;53.012;6.556;2023-07-09T04:55:55;11.20;;;7.82;;
52742;SDS011;55583;53.012;6.556;2023-07-09T04:58:21;16.73;;;8.45;;
52742;SDS011;55583;53.012;6.556;2023-07-09T05:00:47;9.85;;;7.18;;
52742;SDS011;55583;53.012;6.556;2023-07-09T05:03:13;14.07;;;8.35;;
52742;SDS011;55583;53.012;6.556;2023-07-09T05:05:42;11.75;;;8.05;;
52742;SDS011;55583;53.012;6.556;2023-07-09T05:10:41;11.10;;;7.30;;
52742;SDS011;55583;53.012;6.556;2023-07-09T05:13:08;10.57;;;7.57;;
52742;SDS011;55583;53.012;6.556;2023-07-09T05:15:34;13.63;;;7.43;;
52742;SDS011;55583;53.012;6.556;2023-07-09T05:18:00;16.08;;;8.07;;
52742;SDS011;55583;53.012;6.556;2023-07-09T05:20:25;10.13;;;7.05;;
52742;SDS011;55583;53.012;6.556;2023-07-09T05:22:51;15.35;;;8.00;;
52742;SDS011;55583;53.012;6.556;2023-07-09T05:25:17;10.95;;;7.85;;
52742;SDS011;55583;53.012;6.556;2023-07-09T05:27:43;12.00;;;7.40;;
52742;SDS011;55583;53.012;6.556;2023-07-09T05:30:09;9.88;;;7.32;;
52742;SDS011;55583;53.012;6.556;2023-07-09T05:32:36;11.27;;;7.72;;
52742;SDS011;55583;53.012;6.556;2023-07-09T05:35:02;12.10;;;7.88;;
52742;SDS011;55583;53.012;6.556;2023-07-09T05:37:28;12.25;;;8.88;;
52742;SDS011;55583;53.012;6.556;2023-07-09T05:39:53;14.10;;;7.88;;
52742;SDS011;55583;53.012;6.556;2023-07-09T05:42:19;12.55;;;7.57;;
52742;SDS011;55583;53.012;6.556;2023-07-09T05:44:44;16.15;;;8.10;;
52742;SDS011;55583;53.012;6.556;2023-07-09T05:47:10;14.00;;;8.05;;
52742;SDS011;55583;53.012;6.556;2023-07-09T05:49:37;10.88;;;7.25;;
52742;SDS011;55583;53.012;6.556;2023-07-09T05:52:03;17.25;;;9.02;;
52742;SDS011;55583;53.012;6.556;2023-07-09T05:54:29;14.20;;;8.88;;
52742;SDS011;55583;53.012;6.556;2023-07-09T05:56:55;10.63;;;8.18;;
52742;SDS011;55583;53.012;6.556;2023-07-09T05:59:21;11.95;;;7.65;;
52742;SDS011;55583;53.012;6.556;2023-07-09T06:01:47;12.43;;;7.95;;
52742;SDS011;55583;53.012;6.556;2023-07-09T06:04:12;12.15;;;7.63;;
52742;SDS011;55583;53.012;6.556;2023-07-09T06:06:39;12.18;;;7.95;;
52742;SDS011;55583;53.012;6.556;2023-07-09T06:09:06;11.30;;;7.57;;
52742;SDS011;55583;53.012;6.556;2023-07-09T06:11:33;14.18;;;8.25;;
52742;SDS011;55583;53.012;6.556;2023-07-09T06:14:00;13.35;;;7.88;;
52742;SDS011;55583;53.012;6.556;2023-07-09T06:16:26;10.77;;;7.85;;
52742;SDS011;55583;53.012;6.556;2023-07-09T06:18:52;13.63;;;7.80;;
52742;SDS011;55583;53.012;6.556;2023-07-09T06:21:17;13.35;;;7.72;;
52742;SDS011;55583;53.012;6.556;2023-07-09T06:23:44;13.07;;;7.65;;
52742;SDS011;55583;53.012;6.556;2023-07-09T06:26:10;12.20;;;7.85;;
52742;SDS011;55583;53.012;6.556;2023-07-09T06:28:36;12.90;;;8.27;;
52742;SDS011;55583;53.012;6.556;2023-07-09T06:31:01;13.05;;;8.27;;
52742;SDS011;55583;53.012;6.556;2023-07-09T06:33:27;18.92;;;8.18;;
52742;SDS011;55583;53.012;6.556;2023-07-09T06:35:54;13.45;;;8.32;;
52742;SDS011;55583;53.012;6.556;2023-07-09T06:38:25;14.10;;;8.90;;
52742;SDS011;55583;53.012;6.556;2023-07-09T06:40:51;14.55;;;8.80;;
52742;SDS011;55583;53.012;6.556;2023-07-09T06:43:17;10.73;;;7.82;;
52742;SDS011;55583;53.012;6.556;2023-07-09T06:45:54;12.98;;;8.95;;
52742;SDS011;55583;53.012;6.556;2023-07-09T06:48:21;18.60;;;8.43;;
52742;SDS011;55583;53.012;6.556;2023-07-09T06:50:47;10.88;;;8.23;;
52742;SDS011;55583;53.012;6.556;2023-07-09T06:53:13;11.23;;;8.80;;
52742;SDS011;55583;53.012;6.556;2023-07-09T06:55:40;11.82;;;8.23;;
52742;SDS011;55583;53.012;6.556;2023-07-09T06:58:05;15.25;;;8.82;;
52742;SDS011;55583;53.012;6.556;2023-07-09T07:00:33;14.80;;;8.35;;
52742;SDS011;55583;53.012;6.556;2023-07-09T07:03:00;12.15;;;7.90;;
52742;SDS011;55583;53.012;6.556;2023-07-09T07:05:25;17.17;;;8.75;;
52742;SDS011;55583;53.012;6.556;2023-07-09T07:07:51;14.07;;;9.43;;
52742;SDS011;55583;53.012;6.556;2023-07-09T07:10:18;12.52;;;8.73;;
52742;SDS011;55583;53.012;6.556;2023-07-09T07:12:45;10.75;;;8.15;;
52742;SDS011;55583;53.012;6.556;2023-07-09T07:15:14;11.95;;;8.35;;
52742;SDS011;55583;53.012;6.556;2023-07-09T07:17:41;14.07;;;8.77;;
52742;SDS011;55583;53.012;6.556;2023-07-09T07:20:08;21.50;;;9.43;;
52742;SDS011;55583;53.012;6.556;2023-07-09T07:22:34;16.45;;;8.85;;
52742;SDS011;55583;53.012;6.556;2023-07-09T07:25:01;13.40;;;8.18;;
52742;SDS011;55583;53.012;6.556;2023-07-09T07:27:26;13.27;;;8.55;;
52742;SDS011;55583;53.012;6.556;2023-07-09T07:29:52;12.43;;;8.70;;
52742;SDS011;55583;53.012;6.556;2023-07-09T07:32:19;12.25;;;8.63;;
52742;SDS011;55583;53.012;6.556;2023-07-09T07:34:46;12.82;;;8.65;;
52742;SDS011;55583;53.012;6.556;2023-07-09T07:37:12;14.55;;;8.77;;
52742;SDS011;55583;53.012;6.556;2023-07-09T07:39:38;13.60;;;8.15;;
52742;SDS011;55583;53.012;6.556;2023-07-09T07:42:04;14.00;;;8.60;;
52742;SDS011;55583;53.012;6.556;2023-07-09T07:44:30;10.98;;;8.25;;
52742;SDS011;55583;53.012;6.556;2023-07-09T07:46:55;10.65;;;8.23;;
52742;SDS011;55583;53.012;6.556;2023-07-09T07:49:21;13.07;;;7.78;;
52742;SDS011;55583;53.012;6.556;2023-07-09T07:51:47;15.55;;;8.48;;
52742;SDS011;55583;53.012;6.556;2023-07-09T07:54:13;15.88;;;8.55;;
52742;SDS011;55583;53.012;6.556;2023-07-09T07:56:39;12.88;;;7.40;;
52742;SDS011;55583;53.012;6.556;2023-07-09T07:59:06;10.95;;;7.93;;
52742;SDS011;55583;53.012;6.556;2023-07-09T08:01:32;14.18;;;7.60;;
52742;SDS011;55583;53.012;6.556;2023-07-09T08:04:00;13.02;;;7.82;;
52742;SDS011;55583;53.012;6.556;2023-07-09T08:06:27;11.85;;;7.63;;
52742;SDS011;55583;53.012;6.556;2023-07-09T08:08:53;11.50;;;7.03;;
52742;SDS011;55583;53.012;6.556;2023-07-09T08:11:19;15.80;;;8.15;;
52742;SDS011;55583;53.012;6.556;2023-07-09T08:13:44;10.25;;;7.68;;
52742;SDS011;55583;53.012;6.556;2023-07-09T08:16:10;12.02;;;7.00;;
52742;SDS011;55583;53.012;6.556;2023-07-09T08:18:37;12.98;;;6.65;;
52742;SDS011;55583;53.012;6.556;2023-07-09T08:21:02;16.20;;;7.57;;
52742;SDS011;55583;53.012;6.556;2023-07-09T08:23:28;11.48;;;7.35;;
52742;SDS011;55583;53.012;6.556;2023-07-09T08:25:57;11.82;;;7.13;;
52742;SDS011;55583;53.012;6.556;2023-07-09T08:28:24;13.32;;;7.93;;
52742;SDS011;55583;53.012;6.556;2023-07-09T08:30:53;11.90;;;8.13;;
52742;SDS011;55583;53.012;6.556;2023-07-09T08:33:20;13.90;;;7.97;;
52742;SDS011;55583;53.012;6.556;2023-07-09T08:35:48;9.93;;;7.30;;
52742;SDS011;55583;53.012;6.556;2023-07-09T08:38:15;10.95;;;7.18;;
52742;SDS011;55583;53.012;6.556;2023-07-09T08:40:40;13.05;;;7.82;;
52742;SDS011;55583;53.012;6.556;2023-07-09T08:43:51;10.20;;;8.13;;
52742;SDS011;55583;53.012;6.556;2023-07-09T08:48:58;12.55;;;7.10;;
52742;SDS011;55583;53.012;6.556;2023-07-09T08:51:36;12.90;;;7.32;;
52742;SDS011;55583;53.012;6.556;2023-07-09T08:54:08;12.95;;;7.43;;
52742;SDS011;55583;53.012;6.556;2023-07-09T08:56:40;13.25;;;7.00;;
52742;SDS011;55583;53.012;6.556;2023-07-09T08:59:07;11.27;;;7.97;;
52742;SDS011;55583;53.012;6.556;2023-07-09T09:01:41;9.75;;;7.05;;
52742;SDS011;55583;53.012;6.556;2023-07-09T09:04:20;13.38;;;7.35;;
52742;SDS011;55583;53.012;6.556;2023-07-09T09:07:33;10.98;;;7.20;;
52742;SDS011;55583;53.012;6.556;2023-07-09T09:09:46;18.27;;;7.90;;
52742;SDS011;55583;53.012;6.556;2023-07-09T09:12:23;9.90;;;7.85;;
52742;SDS011;55583;53.012;6.556;2023-07-09T09:15:02;12.93;;;7.13;;
52742;SDS011;55583;53.012;6.556;2023-07-09T09:17:41;11.55;;;6.53;;
52742;SDS011;55583;53.012;6.556;2023-07-09T09:20:17;8.55;;;6.78;;
52742;SDS011;55583;53.012;6.556;2023-07-09T09:25:31;10.43;;;6.70;;
52742;SDS011;55583;53.012;6.556;2023-07-09T09:27:59;9.80;;;6.50;;
52742;SDS011;55583;53.012;6.556;2023-07-09T09:30:26;9.75;;;6.38;;
52742;SDS011;55583;53.012;6.556;2023-07-09T09:32:54;11.95;;;6.95;;
52742;SDS011;55583;53.012;6.556;2023-07-09T09:35:29;11.05;;;6.55;;
52742;SDS011;55583;53.012;6.556;2023-07-09T09:37:57;11.38;;;7.90;;
52742;SDS011;55583;53.012;6.556;2023-07-09T09:40:24;9.93;;;6.78;;
52742;SDS011;55583;53.012;6.556;2023-07-09T09:42:56;9.25;;;7.20;;
52742;SDS011;55583;53.012;6.556;2023-07-09T09:45:40;9.82;;;7.07;;
52742;SDS011;55583;53.012;6.556;2023-07-09T09:48:15;10.32;;;6.72;;
52742;SDS011;55583;53.012;6.556;2023-07-09T09:50:46;10.65;;;6.80;;
52742;SDS011;55583;53.012;6.556;2023-07-09T09:53:22;11.82;;;6.63;;
52742;SDS011;55583;53.012;6.556;2023-07-09T09:55:48;9.85;;;6.20;;
52742;SDS011;55583;53.012;6.556;2023-07-09T09:58:17;13.15;;;7.47;;
52742;SDS011;55583;53.012;6.556;2023-07-09T10:00:51;10.38;;;6.70;;
52742;SDS011;55583;53.012;6.556;2023-07-09T10:03:20;13.23;;;6.72;;
52742;SDS011;55583;53.012;6.556;2023-07-09T10:05:53;11.90;;;7.38;;
52742;SDS011;55583;53.012;6.556;2023-07-09T10:10:50;8.77;;;6.47;;
52742;SDS011;55583;53.012;6.556;2023-07-09T10:13:37;9.90;;;6.22;;
52742;SDS011;55583;53.012;6.556;2023-07-09T10:16:10;9.68;;;6.43;;
52742;SDS011;55583;53.012;6.556;2023-07-09T10:21:30;10.70;;;6.63;;
52742;SDS011;55583;53.012;6.556;2023-07-09T10:24:42;13.98;;;6.82;;
52742;SDS011;55583;53.012;6.556;2023-07-09T10:27:28;8.57;;;6.88;;
52742;SDS011;55583;53.012;6.556;2023-07-09T10:36:17;11.80;;;6.60;;
52742;SDS011;55583;53.012;6.556;2023-07-09T10:41:02;11.13;;;6.63;;
52742;SDS011;55583;53.012;6.556;2023-07-09T10:43:42;9.27;;;6.80;;
52742;SDS011;55583;53.012;6.556;2023-07-09T10:46:38;8.43;;;6.40;;
52742;SDS011;55583;53.012;6.556;2023-07-09T10:49:08;10.15;;;6.28;;
52742;SDS011;55583;53.012;6.556;2023-07-09T10:51:46;8.80;;;6.65;;
52742;SDS011;55583;53.012;6.556;2023-07-09T10:54:27;10.73;;;6.22;;
52742;SDS011;55583;53.012;6.556;2023-07-09T10:57:20;10.90;;;6.75;;
52742;SDS011;55583;53.012;6.556;2023-07-09T10:59:53;11.88;;;5.90;;
52742;SDS011;55583;53.012;6.556;2023-07-09T11:02:32;9.70;;;5.93;;
52742;SDS011;55583;53.012;6.556;2023-07-09T11:05:01;9.57;;;6.40;;
52742;SDS011;55583;53.012;6.556;2023-07-09T11:07:33;9.52;;;6.32;;
52742;SDS011;55583;53.012;6.556;2023-07-09T11:10:10;11.27;;;6.53;;
52742;SDS011;55583;53.012;6.556;2023-07-09T11:12:54;8.48;;;5.82;;
52742;SDS011;55583;53.012;6.556;2023-07-09T11:15:33;7.43;;;6.30;;
52742;SDS011;55583;53.012;6.556;2023-07-09T11:18:02;11.48;;;6.30;;
52742;SDS011;55583;53.012;6.556;2023-07-09T11:20:35;8.90;;;6.43;;
52742;SDS011;55583;53.012;6.556;2023-07-09T11:23:17;7.20;;;5.97;;
52742;SDS011;55583;53.012;6.556;2023-07-09T11:26:13;11.13;;;5.80;;
52742;SDS011;55583;53.012;6.556;2023-07-09T11:28:47;9.27;;;6.57;;
52742;SDS011;55583;53.012;6.556;2023-07-09T11:31:24;8.32;;;6.25;;
52742;SDS011;55583;53.012;6.556;2023-07-09T11:39:23;6.50;;;5.82;;
52742;SDS011;55583;53.012;6.556;2023-07-09T11:45:02;7.57;;;4.00;;
52742;SDS011;55583;53.012;6.556;2023-07-09T11:47:37;8.70;;;4.63;;
52742;SDS011;55583;53.012;6.556;2023-07-09T11:50:15;5.70;;;3.78;;
52742;SDS011;55583;53.012;6.556;2023-07-09T11:55:39;9.40;;;4.07;;
52742;SDS011;55583;53.012;6.556;2023-07-09T11:58:08;5.00;;;4.03;;
52742;SDS011;55583;53.012;6.556;2023-07-09T12:00:38;7.23;;;4.33;;
52742;SDS011;55583;53.012;6.556;2023-07-09T12:03:10;7.80;;;4.80;;
52742;SDS011;55583;53.012;6.556;2023-07-09T12:05:48;7.72;;;4.53;;
52742;SDS011;55583;53.012;6.556;2023-07-09T12:08:16;8.95;;;4.22;;
52742;SDS011;55583;53.012;6.556;2023-07-09T12:10:43;8.18;;;4.20;;
52742;SDS011;55583;53.012;6.556;2023-07-09T12:13:10;6.13;;;4.20;;
52742;SDS011;55583;53.012;6.556;2023-07-09T12:15:38;8.85;;;4.20;;
52742;SDS011;55583;53.012;6.556;2023-07-09T12:18:09;4.85;;;4.03;;
52742;SDS011;55583;53.012;6.556;2023-07-09T12:20:38;7.65;;;4.57;;
52742;SDS011;55583;53.012;6.556;2023-07-09T12:25:52;9.77;;;4.85;;
52742;SDS011;55583;53.012;6.556;2023-07-09T12:28:19;7.65;;;4.70;;
52742;SDS011;55583;53.012;6.556;2023-07-09T12:30:47;8.02;;;4.32;;
52742;SDS011;55583;53.012;6.556;2023-07-09T12:33:23;8.80;;;4.93;;
52742;SDS011;55583;53.012;6.556;2023-07-09T12:35:58;5.78;;;4.45;;
52742;SDS011;55583;53.012;6.556;2023-07-09T12:38:31;7.20;;;4.60;;
52742;SDS011;55583;53.012;6.556;2023-07-09T12:41:05;6.07;;;4.38;;
52742;SDS011;55583;53.012;6.556;2023-07-09T12:43:39;9.00;;;4.68;;
52742;SDS011;55583;53.012;6.556;2023-07-09T12:46:04;6.35;;;4.50;;
52742;SDS011;55583;53.012;6.556;2023-07-09T12:48:31;4.82;;;4.28;;
52742;SDS011;55583;53.012;6.556;2023-07-09T12:50:57;4.75;;;3.90;;
52742;SDS011;55583;53.012;6.556;2023-07-09T12:53:25;5.47;;;4.45;;
52742;SDS011;55583;53.012;6.556;2023-07-09T12:55:54;6.57;;;4.47;;
52742;SDS011;55583;53.012;6.556;2023-07-09T12:58:23;5.43;;;3.50;;
52742;SDS011;55583;53.012;6.556;2023-07-09T13:01:04;8.27;;;3.72;;
52742;SDS011;55583;53.012;6.556;2023-07-09T13:03:33;6.57;;;4.10;;
52742;SDS011;55583;53.012;6.556;2023-07-09T13:06:03;4.80;;;3.97;;
52742;SDS011;55583;53.012;6.556;2023-07-09T13:08:32;6.35;;;3.58;;
52742;SDS011;55583;53.012;6.556;2023-07-09T13:11:13;4.72;;;3.75;;
52742;SDS011;55583;53.012;6.556;2023-07-09T13:13:40;12.38;;;4.25;;
52742;SDS011;55583;53.012;6.556;2023-07-09T13:16:06;4.55;;;3.53;;
52742;SDS011;55583;53.012;6.556;2023-07-09T13:18:32;4.75;;;3.63;;
52742;SDS011;55583;53.012;6.556;2023-07-09T13:20:57;6.63;;;4.00;;
52742;SDS011;55583;53.012;6.556;2023-07-09T13:23:26;7.25;;;4.10;;
52742;SDS011;55583;53.012;6.556;2023-07-09T13:25:53;6.55;;;4.20;;
52742;SDS011;55583;53.012;6.556;2023-07-09T13:28:25;11.00;;;3.78;;
52742;SDS011;55583;53.012;6.556;2023-07-09T13:30:55;8.10;;;3.72;;
52742;SDS011;55583;53.012;6.556;2023-07-09T13:33:22;6.20;;;4.18;;
52742;SDS011;55583;53.012;6.556;2023-07-09T13:35:48;5.75;;;4.15;;
52742;SDS011;55583;53.012;6.556;2023-07-09T13:38:17;6.47;;;4.57;;
52742;SDS011;55583;53.012;6.556;2023-07-09T13:40:46;7.00;;;4.25;;
52742;SDS011;55583;53.012;6.556;2023-07-09T13:43:15;6.05;;;4.53;;
52742;SDS011;55583;53.012;6.556;2023-07-09T13:45:44;6.18;;;4.35;;
52742;SDS011;55583;53.012;6.556;2023-07-09T13:48:14;8.40;;;4.45;;
52742;SDS011;55583;53.012;6.556;2023-07-09T13:50:43;7.57;;;4.88;;
52742;SDS011;55583;53.012;6.556;2023-07-09T13:53:19;7.13;;;4.05;;
52742;SDS011;55583;53.012;6.556;2023-07-09T13:55:47;7.10;;;3.60;;
52742;SDS011;55583;53.012;6.556;2023-07-09T13:58:15;9.68;;;4.45;;
52742;SDS011;55583;53.012;6.556;2023-07-09T14:00:43;9.57;;;4.15;;
52742;SDS011;55583;53.012;6.556;2023-07-09T14:05:49;6.32;;;4.30;;
52742;SDS011;55583;53.012;6.556;2023-07-09T14:08:16;4.38;;;3.85;;
52742;SDS011;55583;53.012;6.556;2023-07-09T14:10:42;9.10;;;4.32;;
52742;SDS011;55583;53.012;6.556;2023-07-09T14:13:14;8.60;;;4.13;;
52742;SDS011;55583;53.012;6.556;2023-07-09T14:15:42;5.00;;;4.10;;
52742;SDS011;55583;53.012;6.556;2023-07-09T14:18:11;7.57;;;4.70;;
52742;SDS011;55583;53.012;6.556;2023-07-09T14:20:41;5.05;;;4.10;;
52742;SDS011;55583;53.012;6.556;2023-07-09T14:23:13;10.27;;;4.13;;
52742;SDS011;55583;53.012;6.556;2023-07-09T14:25:40;4.63;;;3.47;;
52742;SDS011;55583;53.012;6.556;2023-07-09T14:28:12;7.68;;;4.78;;
52742;SDS011;55583;53.012;6.556;2023-07-09T14:30:43;7.65;;;4.70;;
52742;SDS011;55583;53.012;6.556;2023-07-09T14:33:14;7.00;;;4.28;;
52742;SDS011;55583;53.012;6.556;2023-07-09T14:35:41;6.70;;;4.57;;
52742;SDS011;55583;53.012;6.556;2023-07-09T14:38:15;6.20;;;4.22;;
52742;SDS011;55583;53.012;6.556;2023-07-09T14:40:41;7.40;;;4.32;;
52742;SDS011;55583;53.012;6.556;2023-07-09T14:43:09;8.07;;;4.60;;
52742;SDS011;55583;53.012;6.556;2023-07-09T14:45:36;8.30;;;5.22;;
52742;SDS011;55583;53.012;6.556;2023-07-09T14:48:04;5.72;;;4.70;;
52742;SDS011;55583;53.012;6.556;2023-07-09T14:50:37;6.78;;;4.40;;
52742;SDS011;55583;53.012;6.556;2023-07-09T14:53:05;12.63;;;5.25;;
52742;SDS011;55583;53.012;6.556;2023-07-09T14:55:37;8.65;;;4.80;;
52742;SDS011;55583;53.012;6.556;2023-07-09T14:58:04;9.90;;;5.47;;
52742;SDS011;55583;53.012;6.556;2023-07-09T15:00:41;9.93;;;5.03;;
52742;SDS011;55583;53.012;6.556;2023-07-09T15:03:09;7.63;;;5.07;;
52742;SDS011;55583;53.012;6.556;2023-07-09T15:05:35;6.78;;;4.63;;
52742;SDS011;55583;53.012;6.556;2023-07-09T15:08:06;8.68;;;4.65;;
52742;SDS011;55583;53.012;6.556;2023-07-09T15:10:39;9.00;;;5.78;;
52742;SDS011;55583;53.012;6.556;2023-07-09T15:13:05;13.05;;;5.78;;
52742;SDS011;55583;53.012;6.556;2023-07-09T15:15:35;7.72;;;4.57;;
52742;SDS011;55583;53.012;6.556;2023-07-09T15:18:08;8.30;;;5.53;;
52742;SDS011;55583;53.012;6.556;2023-07-09T15:20:36;7.25;;;5.60;;
52742;SDS011;55583;53.012;6.556;2023-07-09T15:23:03;16.02;;;6.22;;
52742;SDS011;55583;53.012;6.556;2023-07-09T15:25:29;13.68;;;5.90;;
52742;SDS011;55583;53.012;6.556;2023-07-09T15:27:55;8.23;;;4.65;;
52742;SDS011;55583;53.012;6.556;2023-07-09T15:30:24;13.02;;;4.82;;